Time,TemperatureF,DewpointF,PressureIn,WindDirection,WindDirectionDegrees,WindSpeedMPH,WindSpeedGustMPH,Humidity,HourlyPrecipIn,Conditions,Clouds,dailyrainin,SoftwareType,DateUTC
2013-04-10 00:01:00,49.3,44.1,30.52,SW,225,7.0,10.0,82,0.00,,,0.00,meteohub,2013-04-10 07:01:00,
2013-04-10 00:06:00,49.3,44.1,30.52,WSW,245,2.0,10.0,82,0.00,,,0.00,meteohub,2013-04-10 07:06:00,
2013-04-10 00:12:00,49.1,43.9,30.52,WSW,246,7.0,12.0,82,0.00,,,0.00,meteohub,2013-04-10 07:12:00,
2013-04-10 00:17:00,48.9,44.1,30.52,WSW,250,5.0,12.0,83,0.00,,,0.00,meteohub,2013-04-10 07:17:00,
2013-04-10 00:22:00,48.7,43.9,30.52,West,264,3.0,13.0,83,0.00,,,0.00,meteohub,2013-04-10 07:22:00,
2013-04-10 00:27:00,48.7,43.9,30.53,SW,232,2.0,13.0,83,0.00,,,0.00,meteohub,2013-04-10 07:27:00,
2013-04-10 00:32:00,48.6,43.7,30.53,NW,306,2.0,12.0,83,0.00,,,0.00,meteohub,2013-04-10 07:32:00,
2013-04-10 00:38:00,48.6,43.7,30.53,WSW,242,5.0,8.0,83,0.00,,,0.00,meteohub,2013-04-10 07:38:00,
2013-04-10 00:43:00,48.6,43.7,30.53,West,264,9.0,9.0,83,0.00,,,0.00,meteohub,2013-04-10 07:43:00,
2013-04-10 00:48:00,48.6,43.7,30.52,SW,214,4.0,10.0,83,0.00,,,0.00,meteohub,2013-04-10 07:48:00,
2013-04-10 00:53:00,48.4,43.5,30.52,WSW,237,6.0,10.0,83,0.00,,,0.00,meteohub,2013-04-10 07:53:00,
2013-04-10 00:59:00,48.2,43.5,30.52,SW,226,3.0,10.0,84,0.00,,,0.00,meteohub,2013-04-10 07:59:00,
2013-04-10 01:04:00,48.0,43.2,30.52,WSW,253,2.0,10.0,83,0.00,,,0.00,meteohub,2013-04-10 08:04:00,
2013-04-10 01:09:00,48.0,43.2,30.52,WSW,250,5.0,9.0,83,0.00,,,0.00,meteohub,2013-04-10 08:09:00,
2013-04-10 01:14:00,47.8,43.2,30.52,SW,221,3.0,9.0,84,0.00,,,0.00,meteohub,2013-04-10 08:14:00,
2013-04-10 01:19:00,47.8,43.2,30.52,South,190,4.0,9.0,84,0.00,,,0.00,meteohub,2013-04-10 08:19:00,
2013-04-10 01:24:00,47.7,43.0,30.52,WNW,291,4.0,7.0,84,0.00,,,0.00,meteohub,2013-04-10 08:24:00,
2013-04-10 01:30:00,47.8,43.0,30.52,WSW,237,5.0,8.0,83,0.00,,,0.00,meteohub,2013-04-10 08:30:00,
2013-04-10 01:35:00,47.8,43.0,30.52,WSW,245,4.0,9.0,83,0.00,,,0.00,meteohub,2013-04-10 08:35:00,
2013-04-10 01:40:00,47.8,43.0,30.52,WSW,256,6.0,9.0,83,0.00,,,0.00,meteohub,2013-04-10 08:40:00,
2013-04-10 01:45:00,48.0,43.2,30.51,SW,233,5.0,10.0,83,0.00,,,0.00,meteohub,2013-04-10 08:45:00,
2013-04-10 01:50:00,48.2,43.0,30.51,WSW,242,7.0,10.0,82,0.00,,,0.00,meteohub,2013-04-10 08:50:00,
2013-04-10 01:55:00,48.2,43.0,30.51,WSW,237,3.0,10.0,82,0.00,,,0.00,meteohub,2013-04-10 08:55:00,
2013-04-10 02:00:00,48.2,43.0,30.51,SSW,199,2.0,8.0,82,0.00,,,0.00,meteohub,2013-04-10 09:00:00,
2013-04-10 02:06:00,48.0,42.8,30.51,SSW,194,2.0,7.0,82,0.00,,,0.00,meteohub,2013-04-10 09:06:00,
2013-04-10 02:11:00,47.8,42.6,30.51,SE,136,0.0,6.0,82,0.00,,,0.00,meteohub,2013-04-10 09:11:00,
2013-04-10 02:16:00,47.8,43.0,30.51,SW,214,3.0,6.0,83,0.00,,,0.00,meteohub,2013-04-10 09:16:00,
2013-04-10 02:21:00,47.8,42.6,30.50,SW,234,4.0,4.0,82,0.00,,,0.00,meteohub,2013-04-10 09:21:00,
2013-04-10 02:27:00,47.8,42.6,30.50,West,264,2.0,5.0,82,0.00,,,0.00,meteohub,2013-04-10 09:27:00,
2013-04-10 02:32:00,48.0,42.8,30.50,WSW,252,1.0,6.0,82,0.00,,,0.00,meteohub,2013-04-10 09:32:00,
2013-04-10 02:37:00,48.0,42.8,30.50,West,273,3.0,6.0,82,0.00,,,0.00,meteohub,2013-04-10 09:37:00,
2013-04-10 02:42:00,48.0,42.8,30.50,West,261,2.0,6.0,82,0.00,,,0.00,meteohub,2013-04-10 09:42:00,
2013-04-10 02:47:00,48.0,42.4,30.50,WSW,257,2.0,7.0,81,0.00,,,0.00,meteohub,2013-04-10 09:47:00,
2013-04-10 02:52:00,48.2,42.6,30.49,WSW,248,2.0,7.0,81,0.00,,,0.00,meteohub,2013-04-10 09:52:00,
2013-04-10 02:57:00,48.2,42.6,30.49,WSW,256,2.0,7.0,81,0.00,,,0.00,meteohub,2013-04-10 09:57:00,
2013-04-10 03:02:00,48.2,42.6,30.49,West,265,3.0,7.0,81,0.00,,,0.00,meteohub,2013-04-10 10:02:00,
2013-04-10 03:07:00,48.2,42.6,30.49,WSW,245,1.0,7.0,81,0.00,,,0.00,meteohub,2013-04-10 10:07:00,
2013-04-10 03:12:00,48.4,42.8,30.48,WSW,256,1.0,7.0,81,0.00,,,0.00,meteohub,2013-04-10 10:12:00,
2013-04-10 03:18:00,48.4,42.4,30.49,SW,236,5.0,5.0,80,0.00,,,0.00,meteohub,2013-04-10 10:18:00,
2013-04-10 03:23:00,48.4,42.4,30.48,WNW,289,3.0,7.0,80,0.00,,,0.00,meteohub,2013-04-10 10:23:00,
2013-04-10 03:28:00,48.4,42.4,30.48,West,275,0.0,7.0,80,0.00,,,0.00,meteohub,2013-04-10 10:28:00,
2013-04-10 03:33:00,48.4,42.4,30.48,WNW,294,1.0,8.0,80,0.00,,,0.00,meteohub,2013-04-10 10:33:00,
2013-04-10 03:38:00,48.4,42.4,30.48,WSW,240,0.0,8.0,80,0.00,,,0.00,meteohub,2013-04-10 10:38:00,
2013-04-10 03:43:00,48.0,42.4,30.48,WSW,238,0.0,8.0,81,0.00,,,0.00,meteohub,2013-04-10 10:43:00,
2013-04-10 03:49:00,48.0,42.4,30.48,WNW,300,3.0,4.0,81,0.00,,,0.00,meteohub,2013-04-10 10:49:00,
2013-04-10 03:54:00,48.0,42.1,30.48,NW,316,0.0,5.0,80,0.00,,,0.00,meteohub,2013-04-10 10:54:00,
2013-04-10 03:59:00,48.0,42.4,30.48,SW,221,0.0,5.0,81,0.00,,,0.00,meteohub,2013-04-10 10:59:00,
2013-04-10 04:04:00,47.8,42.6,30.48,WSW,250,1.0,5.0,82,0.00,,,0.00,meteohub,2013-04-10 11:04:00,
2013-04-10 04:09:00,47.8,42.6,30.48,West,280,0.0,4.0,82,0.00,,,0.00,meteohub,2013-04-10 11:09:00,
2013-04-10 04:14:00,47.7,42.4,30.48,WSW,238,1.0,2.0,82,0.00,,,0.00,meteohub,2013-04-10 11:14:00,
2013-04-10 04:19:00,47.3,42.4,30.47,SSW,210,1.0,2.0,83,0.00,,,0.00,meteohub,2013-04-10 11:19:00,
2013-04-10 04:26:00,46.9,42.1,30.47,SSE,168,0.0,2.0,83,0.00,,,0.00,meteohub,2013-04-10 11:26:00,
2013-04-10 04:31:00,46.8,42.3,30.47,SSE,168,0.0,2.0,84,0.00,,,0.00,meteohub,2013-04-10 11:31:00,
2013-04-10 04:36:00,46.8,42.3,30.46,SSE,165,0.0,2.0,84,0.00,,,0.00,meteohub,2013-04-10 11:36:00,
2013-04-10 04:41:00,46.6,42.1,30.47,SSE,166,0.0,1.0,84,0.00,,,0.00,meteohub,2013-04-10 11:41:00,
2013-04-10 04:47:00,46.2,41.9,30.46,South,190,2.0,2.0,85,0.00,,,0.00,meteohub,2013-04-10 11:47:00,
2013-04-10 04:52:00,46.0,41.7,30.46,SSE,159,0.0,2.0,85,0.00,,,0.00,meteohub,2013-04-10 11:52:00,
2013-04-10 04:58:00,45.9,41.5,30.45,SSE,153,0.0,3.0,85,0.00,,,0.00,meteohub,2013-04-10 11:58:00,
2013-04-10 05:03:00,45.9,41.5,30.45,SE,146,1.0,3.0,85,0.00,,,0.00,meteohub,2013-04-10 12:03:00,
2013-04-10 05:08:00,45.5,41.5,30.45,SE,145,0.0,2.0,86,0.00,,,0.00,meteohub,2013-04-10 12:08:00,
2013-04-10 05:13:00,45.3,41.4,30.45,SSE,151,0.0,2.0,86,0.00,,,0.00,meteohub,2013-04-10 12:13:00,
2013-04-10 05:18:00,45.7,41.7,30.45,SSE,154,0.0,3.0,86,0.00,,,0.00,meteohub,2013-04-10 12:18:00,
2013-04-10 05:23:00,45.9,41.5,30.45,SE,138,1.0,3.0,85,0.00,,,0.00,meteohub,2013-04-10 12:23:00,
2013-04-10 05:29:00,45.9,41.5,30.45,SE,136,1.0,3.0,85,0.00,,,0.00,meteohub,2013-04-10 12:29:00,
2013-04-10 05:34:00,46.0,41.7,30.45,South,171,1.0,3.0,85,0.00,,,0.00,meteohub,2013-04-10 12:34:00,
2013-04-10 05:39:00,46.0,41.7,30.45,SSE,151,0.0,3.0,85,0.00,,,0.00,meteohub,2013-04-10 12:39:00,
2013-04-10 05:44:00,46.2,41.9,30.44,SE,138,1.0,3.0,85,0.00,,,0.00,meteohub,2013-04-10 12:44:00,
2013-04-10 05:49:00,46.2,41.9,30.44,SE,136,0.0,2.0,85,0.00,,,0.00,meteohub,2013-04-10 12:49:00,
2013-04-10 05:54:00,46.2,41.9,30.44,SE,136,0.0,1.0,85,0.00,,,0.00,meteohub,2013-04-10 12:54:00,
2013-04-10 05:59:00,46.4,42.4,30.44,SE,138,0.0,1.0,86,0.00,,,0.00,meteohub,2013-04-10 12:59:00,
2013-04-10 06:05:00,46.6,42.6,30.43,SE,136,0.0,1.0,86,0.00,,,0.00,meteohub,2013-04-10 13:05:00,
2013-04-10 06:10:00,46.8,42.4,30.43,SSE,151,0.0,1.0,85,0.00,,,0.00,meteohub,2013-04-10 13:10:00,
2013-04-10 06:15:00,46.8,42.4,30.43,ESE,105,0.0,1.0,85,0.00,,,0.00,meteohub,2013-04-10 13:15:00,
2013-04-10 06:20:00,47.1,42.8,30.43,ESE,110,0.0,1.0,85,0.00,,,0.00,meteohub,2013-04-10 13:20:00,
2013-04-10 06:25:00,47.3,43.0,30.43,ESE,110,0.0,1.0,85,0.00,,,0.00,meteohub,2013-04-10 13:25:00,
2013-04-10 06:30:00,47.3,42.8,30.43,ESE,111,0.0,1.0,84,0.00,,,0.00,meteohub,2013-04-10 13:30:00,
2013-04-10 06:36:00,47.3,43.0,30.43,East,81,0.0,1.0,85,0.00,,,0.00,meteohub,2013-04-10 13:36:00,
2013-04-10 06:41:00,47.3,42.8,30.43,SSE,165,1.0,2.0,84,0.00,,,0.00,meteohub,2013-04-10 13:41:00,
2013-04-10 06:46:00,47.7,43.3,30.43,West,259,0.0,2.0,85,0.00,,,0.00,meteohub,2013-04-10 13:46:00,
2013-04-10 06:51:00,48.4,43.7,30.43,WNW,286,1.0,4.0,84,0.00,,,0.00,meteohub,2013-04-10 13:51:00,
2013-04-10 06:57:00,48.7,44.1,30.43,WNW,299,5.0,6.0,84,0.00,,,0.00,meteohub,2013-04-10 13:57:00,
2013-04-10 07:02:00,48.7,44.1,30.43,WSW,241,3.0,6.0,84,0.00,,,0.00,meteohub,2013-04-10 14:02:00,
2013-04-10 07:07:00,48.9,44.2,30.43,NNW,334,2.0,7.0,84,0.00,,,0.00,meteohub,2013-04-10 14:07:00,
2013-04-10 07:12:00,49.1,44.2,30.42,WSW,244,7.0,7.0,83,0.00,,,0.00,meteohub,2013-04-10 14:12:00,
2013-04-10 07:17:00,50.4,44.1,30.42,WSW,240,8.0,8.0,79,0.00,,,0.00,meteohub,2013-04-10 14:17:00,
2013-04-10 07:22:00,51.1,44.1,30.42,WSW,242,9.0,10.0,77,0.00,,,0.00,meteohub,2013-04-10 14:22:00,
2013-04-10 07:27:00,51.6,44.2,30.42,West,259,5.0,10.0,76,0.00,,,0.00,meteohub,2013-04-10 14:27:00,
2013-04-10 07:32:00,51.6,44.6,30.41,WSW,240,4.0,12.0,77,0.00,,,0.00,meteohub,2013-04-10 14:32:00,
2013-04-10 07:37:00,51.4,44.8,30.41,NW,321,8.0,12.0,78,0.00,,,0.00,meteohub,2013-04-10 14:37:00,
2013-04-10 07:42:00,51.4,45.1,30.41,NW,319,8.0,13.0,79,0.00,,,0.00,meteohub,2013-04-10 14:42:00,
2013-04-10 07:47:00,51.1,45.1,30.41,West,260,5.0,13.0,80,0.00,,,0.00,meteohub,2013-04-10 14:47:00,
2013-04-10 07:52:00,50.9,45.7,30.41,West,269,4.0,14.0,82,0.00,,,0.00,meteohub,2013-04-10 14:52:00,
2013-04-10 07:58:00,50.5,45.5,30.41,SW,226,8.0,14.0,83,0.00,,,0.00,meteohub,2013-04-10 14:58:00,
2013-04-10 08:03:00,50.4,45.7,30.41,WSW,248,3.0,10.0,84,0.00,,,0.00,meteohub,2013-04-10 15:03:00,
2013-04-10 08:08:00,50.4,45.7,30.40,WSW,256,4.0,10.0,84,0.00,,,0.00,meteohub,2013-04-10 15:08:00,
2013-04-10 08:14:00,50.2,45.9,30.41,WNW,286,15.0,15.0,85,0.00,,,0.00,meteohub,2013-04-10 15:14:00,
2013-04-10 08:19:00,49.8,45.9,30.40,WSW,249,2.0,10.0,86,0.00,,,0.00,meteohub,2013-04-10 15:19:00,
2013-04-10 08:24:00,49.6,45.9,30.40,WNW,286,4.0,15.0,87,0.00,,,0.00,meteohub,2013-04-10 15:24:00,
2013-04-10 08:30:00,49.6,45.9,30.40,SW,218,1.0,15.0,87,0.00,,,0.00,meteohub,2013-04-10 15:30:00,
2013-04-10 08:35:00,49.5,45.7,30.39,WNW,288,2.0,8.0,87,0.00,,,0.00,meteohub,2013-04-10 15:35:00,
2013-04-10 08:40:00,48.9,45.1,30.39,NW,311,1.0,8.0,87,0.00,,,0.00,meteohub,2013-04-10 15:40:00,
2013-04-10 08:45:00,48.7,44.8,30.39,SW,222,2.0,7.0,86,0.00,,,0.00,meteohub,2013-04-10 15:45:00,
2013-04-10 08:51:00,48.7,44.4,30.38,West,271,1.0,7.0,85,0.00,,,0.00,meteohub,2013-04-10 15:51:00,
2013-04-10 08:56:00,48.7,44.1,30.38,West,274,1.0,6.0,84,0.00,,,0.00,meteohub,2013-04-10 15:56:00,
2013-04-10 09:01:00,48.6,43.9,30.37,SE,137,0.0,6.0,84,0.00,,,0.00,meteohub,2013-04-10 16:01:00,
2013-04-10 09:07:00,48.6,43.9,30.37,NW,311,2.0,4.0,84,0.00,,,0.00,meteohub,2013-04-10 16:07:00,
2013-04-10 09:12:00,48.6,43.7,30.36,SW,227,0.0,6.0,83,0.00,,,0.00,meteohub,2013-04-10 16:12:00,
2013-04-10 09:17:00,48.7,43.5,30.35,WNW,285,2.0,6.0,82,0.00,,,0.00,meteohub,2013-04-10 16:17:00,
2013-04-10 09:22:00,48.7,43.9,30.36,WSW,254,1.0,6.0,83,0.00,,,0.00,meteohub,2013-04-10 16:22:00,
2013-04-10 09:27:00,48.7,43.5,30.35,NE,44,0.0,4.0,82,0.00,,,0.00,meteohub,2013-04-10 16:27:00,
2013-04-10 09:33:00,48.7,43.5,30.35,SSW,202,1.0,3.0,82,0.00,,,0.00,meteohub,2013-04-10 16:33:00,
2013-04-10 09:38:00,48.9,43.7,30.35,SW,217,0.0,3.0,82,0.00,,,0.00,meteohub,2013-04-10 16:38:00,
2013-04-10 09:43:00,48.9,43.7,30.35,SW,215,1.0,3.0,82,0.00,,,0.00,meteohub,2013-04-10 16:43:00,
2013-04-10 09:48:00,49.3,44.1,30.35,SW,233,0.0,3.0,82,0.01,,,0.01,meteohub,2013-04-10 16:48:00,
2013-04-10 09:54:00,49.3,44.4,30.35,SW,233,0.0,2.0,83,0.02,,,0.02,meteohub,2013-04-10 16:54:00,
2013-04-10 09:59:00,49.5,44.2,30.34,NNW,337,1.0,2.0,82,0.03,,,0.03,meteohub,2013-04-10 16:59:00,
2013-04-10 10:04:00,49.5,44.8,30.34,West,271,3.0,3.0,84,0.04,,,0.04,meteohub,2013-04-10 17:04:00,
2013-04-10 10:09:00,49.6,44.8,30.34,SSW,196,1.0,4.0,83,0.04,,,0.04,meteohub,2013-04-10 17:09:00,
2013-04-10 10:14:00,50.0,45.0,30.34,WSW,257,0.0,4.0,83,0.05,,,0.05,meteohub,2013-04-10 17:14:00,
2013-04-10 10:20:00,50.4,46.0,30.33,NW,308,4.0,5.0,85,0.05,,,0.05,meteohub,2013-04-10 17:20:00,
2013-04-10 10:25:00,50.4,45.7,30.33,West,273,5.0,5.0,84,0.05,,,0.05,meteohub,2013-04-10 17:25:00,
2013-04-10 10:30:00,50.4,46.0,30.34,NNW,332,3.0,8.0,85,0.05,,,0.05,meteohub,2013-04-10 17:30:00,
2013-04-10 10:36:00,50.5,45.5,30.34,WNW,299,6.0,8.0,83,0.05,,,0.05,meteohub,2013-04-10 17:36:00,
2013-04-10 10:41:00,51.1,46.4,30.34,WSW,248,4.0,11.0,84,0.05,,,0.06,meteohub,2013-04-10 17:41:00,
2013-04-10 10:46:00,51.8,48.0,30.33,West,265,8.0,20.0,87,0.06,,,0.07,meteohub,2013-04-10 17:46:00,
2013-04-10 10:51:00,52.3,48.6,30.33,SW,222,4.0,20.0,87,0.05,,,0.08,meteohub,2013-04-10 17:51:00,
2013-04-10 10:57:00,52.7,48.9,30.32,West,262,6.0,20.0,87,0.05,,,0.09,meteohub,2013-04-10 17:57:00,
2013-04-10 11:02:00,53.1,49.3,30.32,SW,214,4.0,22.0,87,0.05,,,0.09,meteohub,2013-04-10 18:02:00,
2013-04-10 11:07:00,53.2,49.5,30.32,SW,226,10.0,22.0,87,0.06,,,0.10,meteohub,2013-04-10 18:07:00,
2013-04-10 11:12:00,53.6,49.8,30.32,WSW,244,7.0,22.0,87,0.05,,,0.10,meteohub,2013-04-10 18:12:00,
2013-04-10 11:17:00,54.0,49.8,30.32,SSW,210,6.0,20.0,86,0.05,,,0.10,meteohub,2013-04-10 18:17:00,
2013-04-10 11:22:00,54.0,49.8,30.32,WSW,242,6.0,20.0,86,0.05,,,0.10,meteohub,2013-04-10 18:22:00,
2013-04-10 11:28:00,54.3,49.8,30.32,SW,221,8.0,19.0,85,0.05,,,0.10,meteohub,2013-04-10 18:28:00,
2013-04-10 11:33:00,54.9,50.2,30.31,WSW,254,14.0,19.0,84,0.05,,,0.10,meteohub,2013-04-10 18:33:00,
2013-04-10 11:38:00,55.0,50.4,30.31,SW,214,18.0,19.0,84,0.05,,,0.10,meteohub,2013-04-10 18:38:00,
2013-04-10 11:43:00,55.2,49.8,30.30,SW,226,11.0,23.0,82,0.04,,,0.10,meteohub,2013-04-10 18:43:00,
2013-04-10 11:48:00,55.4,49.6,30.31,WSW,253,4.0,23.0,81,0.03,,,0.10,meteohub,2013-04-10 18:48:00,
2013-04-10 11:53:00,55.8,50.0,30.31,WSW,237,15.0,23.0,81,0.02,,,0.10,meteohub,2013-04-10 18:53:00,
2013-04-10 11:58:00,56.3,50.9,30.32,WNW,291,8.0,24.0,82,0.01,,,0.10,meteohub,2013-04-10 18:58:00,
2013-04-10 12:04:00,56.8,50.0,30.31,West,260,11.0,24.0,78,0.01,,,0.10,meteohub,2013-04-10 19:04:00,
2013-04-10 12:09:00,56.8,50.0,30.31,SW,214,10.0,22.0,78,0.00,,,0.10,meteohub,2013-04-10 19:09:00,
2013-04-10 12:14:00,56.8,49.6,30.31,SW,217,16.0,26.0,77,0.00,,,0.10,meteohub,2013-04-10 19:14:00,
2013-04-10 12:19:00,56.8,49.6,30.31,WNW,288,9.0,26.0,77,0.00,,,0.10,meteohub,2013-04-10 19:19:00,
2013-04-10 12:24:00,57.0,49.8,30.32,West,277,6.0,26.0,77,0.00,,,0.10,meteohub,2013-04-10 19:24:00,
2013-04-10 12:29:00,57.0,49.5,30.32,SSW,205,14.0,26.0,76,0.00,,,0.10,meteohub,2013-04-10 19:29:00,
2013-04-10 12:34:00,57.4,49.5,30.32,WSW,257,5.0,28.0,75,0.00,,,0.10,meteohub,2013-04-10 19:34:00,
2013-04-10 12:40:00,57.9,49.3,30.34,SW,226,9.0,28.0,73,0.00,,,0.10,meteohub,2013-04-10 19:40:00,
2013-04-10 12:45:00,58.3,48.9,30.34,SSW,211,7.0,25.0,71,0.00,,,0.10,meteohub,2013-04-10 19:45:00,
2013-04-10 12:50:00,58.5,49.8,30.34,West,279,3.0,21.0,73,0.00,,,0.10,meteohub,2013-04-10 19:50:00,
2013-04-10 12:55:00,59.2,49.8,30.35,SW,234,9.0,17.0,71,0.00,,,0.10,meteohub,2013-04-10 19:55:00,
2013-04-10 13:00:00,58.8,48.7,30.35,WSW,248,7.0,12.0,69,0.00,,,0.10,meteohub,2013-04-10 20:00:00,
2013-04-10 13:05:00,58.6,48.9,30.35,West,275,6.0,12.0,70,0.00,,,0.10,meteohub,2013-04-10 20:05:00,
2013-04-10 13:11:00,58.3,48.9,30.35,WSW,252,5.0,16.0,71,0.00,,,0.10,meteohub,2013-04-10 20:11:00,
2013-04-10 13:16:00,57.6,48.9,30.36,WSW,248,5.0,17.0,73,0.00,,,0.10,meteohub,2013-04-10 20:16:00,
2013-04-10 13:21:00,56.8,48.9,30.36,SW,227,12.0,17.0,75,0.00,,,0.10,meteohub,2013-04-10 20:21:00,
2013-04-10 13:26:00,56.3,49.5,30.37,NW,305,8.0,16.0,78,0.00,,,0.10,meteohub,2013-04-10 20:26:00,
2013-04-10 13:32:00,55.8,48.9,30.38,SW,225,6.0,16.0,78,0.00,,,0.10,meteohub,2013-04-10 20:32:00,
2013-04-10 13:37:00,55.2,48.7,30.38,SW,227,3.0,16.0,79,0.01,,,0.11,meteohub,2013-04-10 20:37:00,
2013-04-10 13:43:00,54.7,49.6,30.38,West,267,8.0,13.0,83,0.01,,,0.11,meteohub,2013-04-10 20:43:00,
2013-04-10 13:48:00,54.1,49.5,30.38,West,268,5.0,12.0,84,0.02,,,0.12,meteohub,2013-04-10 20:48:00,
2013-04-10 13:53:00,53.8,49.5,30.38,WSW,257,10.0,17.0,85,0.04,,,0.14,meteohub,2013-04-10 20:53:00,
2013-04-10 13:58:00,53.8,49.1,30.38,WSW,250,13.0,17.0,84,0.04,,,0.14,meteohub,2013-04-10 20:58:00,
2013-04-10 14:04:00,54.1,49.5,30.38,WSW,240,13.0,20.0,84,0.04,,,0.14,meteohub,2013-04-10 21:04:00,
2013-04-10 14:09:00,54.9,50.4,30.38,WSW,257,8.0,20.0,85,0.04,,,0.14,meteohub,2013-04-10 21:09:00,
2013-04-10 14:14:00,55.8,50.4,30.38,SW,229,7.0,20.0,82,0.04,,,0.14,meteohub,2013-04-10 21:14:00,
2013-04-10 14:19:00,56.3,49.8,30.38,SW,226,12.0,16.0,79,0.04,,,0.14,meteohub,2013-04-10 21:19:00,
2013-04-10 14:24:00,56.7,50.5,30.38,South,191,4.0,20.0,80,0.04,,,0.14,meteohub,2013-04-10 21:24:00,
2013-04-10 14:29:00,57.0,49.5,30.38,WSW,253,13.0,20.0,76,0.04,,,0.14,meteohub,2013-04-10 21:29:00,
2013-04-10 14:35:00,57.7,50.2,30.38,West,269,7.0,20.0,76,0.04,,,0.14,meteohub,2013-04-10 21:35:00,
2013-04-10 14:40:00,58.5,50.2,30.38,SW,217,13.0,22.0,74,0.02,,,0.14,meteohub,2013-04-10 21:40:00,
2013-04-10 14:46:00,58.5,49.1,30.38,WSW,248,11.0,22.0,71,0.01,,,0.14,meteohub,2013-04-10 21:46:00,
2013-04-10 14:51:00,58.1,49.1,30.38,SSW,192,16.0,23.0,72,0.00,,,0.14,meteohub,2013-04-10 21:51:00,
2013-04-10 14:56:00,57.9,48.6,30.38,WSW,257,16.0,23.0,71,0.01,,,0.15,meteohub,2013-04-10 21:56:00,
2013-04-10 15:02:00,57.6,47.8,30.39,West,261,14.0,23.0,70,0.01,,,0.15,meteohub,2013-04-10 22:02:00,
2013-04-10 15:07:00,57.6,47.8,30.39,WSW,252,11.0,22.0,70,0.01,,,0.15,meteohub,2013-04-10 22:07:00,
2013-04-10 15:12:00,57.4,47.7,30.39,WSW,252,12.0,21.0,70,0.01,,,0.15,meteohub,2013-04-10 22:12:00,
2013-04-10 15:18:00,57.2,46.8,30.39,WSW,245,11.0,21.0,68,0.01,,,0.15,meteohub,2013-04-10 22:18:00,
2013-04-10 15:23:00,56.8,47.1,30.39,WSW,244,13.0,21.0,70,0.01,,,0.15,meteohub,2013-04-10 22:23:00,
2013-04-10 15:28:00,56.7,45.9,30.39,WSW,245,9.0,25.0,67,0.01,,,0.15,meteohub,2013-04-10 22:28:00,
2013-04-10 15:34:00,56.5,46.0,30.39,SW,219,11.0,26.0,68,0.01,,,0.15,meteohub,2013-04-10 22:34:00,
2013-04-10 15:39:00,56.3,45.1,30.40,WSW,248,8.0,26.0,66,0.01,,,0.15,meteohub,2013-04-10 22:39:00,
2013-04-10 15:44:00,56.7,45.0,30.40,WSW,242,10.0,26.0,65,0.01,,,0.15,meteohub,2013-04-10 22:44:00,
2013-04-10 15:49:00,57.0,44.1,30.40,WSW,240,10.0,24.0,62,0.01,,,0.15,meteohub,2013-04-10 22:49:00,
2013-04-10 15:54:00,57.4,43.7,30.40,West,260,10.0,24.0,60,0.01,,,0.15,meteohub,2013-04-10 22:54:00,
2013-04-10 16:00:00,57.2,43.5,30.40,West,265,14.0,24.0,60,0.00,,,0.15,meteohub,2013-04-10 23:00:00,
2013-04-10 16:05:00,56.8,43.2,30.40,West,271,14.0,23.0,60,0.00,,,0.15,meteohub,2013-04-10 23:05:00,
2013-04-10 16:10:00,56.7,43.0,30.40,SSW,194,11.0,22.0,60,0.00,,,0.15,meteohub,2013-04-10 23:10:00,
2013-04-10 16:15:00,56.5,42.8,30.40,WSW,256,21.0,31.0,60,0.00,,,0.15,meteohub,2013-04-10 23:15:00,
2013-04-10 16:20:00,56.1,42.4,30.41,WSW,240,12.0,31.0,60,0.00,,,0.15,meteohub,2013-04-10 23:20:00,
2013-04-10 16:26:00,56.1,42.8,30.40,SW,229,13.0,31.0,61,0.00,,,0.15,meteohub,2013-04-10 23:26:00,
2013-04-10 16:31:00,55.9,42.3,30.41,WSW,256,3.0,22.0,60,0.00,,,0.15,meteohub,2013-04-10 23:31:00,
2013-04-10 16:37:00,55.8,43.0,30.41,SW,225,11.0,22.0,62,0.00,,,0.15,meteohub,2013-04-10 23:37:00,
2013-04-10 16:42:00,55.8,43.0,30.41,SSW,210,15.0,22.0,62,0.00,,,0.15,meteohub,2013-04-10 23:42:00,
2013-04-10 16:47:00,55.8,43.3,30.41,WSW,246,10.0,20.0,63,0.00,,,0.15,meteohub,2013-04-10 23:47:00,
2013-04-10 16:53:00,55.8,43.0,30.41,SW,225,7.0,23.0,62,0.00,,,0.15,meteohub,2013-04-10 23:53:00,
2013-04-10 16:58:00,55.8,43.0,30.42,WNW,294,9.0,23.0,62,0.00,,,0.15,meteohub,2013-04-10 23:58:00,
2013-04-10 17:03:00,55.6,42.8,30.42,West,269,8.0,23.0,62,0.00,,,0.15,meteohub,2013-04-11 00:03:00,
2013-04-10 17:08:00,55.6,42.8,30.42,WSW,240,8.0,25.0,62,0.00,,,0.15,meteohub,2013-04-11 00:08:00,
2013-04-10 17:13:00,55.4,43.0,30.41,SW,225,11.0,25.0,63,0.00,,,0.15,meteohub,2013-04-11 00:13:00,
2013-04-10 17:18:00,55.2,42.1,30.42,SW,221,4.0,25.0,61,0.00,,,0.15,meteohub,2013-04-11 00:18:00,
2013-04-10 17:24:00,55.2,42.4,30.43,SSW,210,12.0,22.0,62,0.00,,,0.15,meteohub,2013-04-11 00:24:00,
2013-04-10 17:29:00,55.2,42.4,30.43,SSW,196,7.0,18.0,62,0.00,,,0.15,meteohub,2013-04-11 00:29:00,
2013-04-10 17:34:00,55.0,41.9,30.43,WSW,254,8.0,18.0,61,0.00,,,0.15,meteohub,2013-04-11 00:34:00,
2013-04-10 17:39:00,54.9,42.1,30.43,West,271,3.0,22.0,62,0.00,,,0.15,meteohub,2013-04-11 00:39:00,
2013-04-10 17:45:00,55.0,42.3,30.43,SW,235,6.0,22.0,62,0.00,,,0.15,meteohub,2013-04-11 00:45:00,
2013-04-10 17:50:00,55.2,41.5,30.44,SW,235,12.0,22.0,60,0.00,,,0.15,meteohub,2013-04-11 00:50:00,
2013-04-10 17:56:00,55.0,41.0,30.44,WNW,283,14.0,16.0,59,0.00,,,0.15,meteohub,2013-04-11 00:56:00,
2013-04-10 18:02:00,54.9,41.2,30.45,SSE,165,9.0,16.0,60,0.00,,,0.15,meteohub,2013-04-11 01:02:00,
2013-04-10 18:07:00,54.9,40.8,30.45,SSW,202,7.0,20.0,59,0.00,,,0.15,meteohub,2013-04-11 01:07:00,
2013-04-10 18:12:00,54.7,40.6,30.45,West,269,6.0,20.0,59,0.00,,,0.15,meteohub,2013-04-11 01:12:00,
2013-04-10 18:17:00,54.7,40.3,30.45,WSW,257,7.0,20.0,58,0.00,,,0.15,meteohub,2013-04-11 01:17:00,
2013-04-10 18:22:00,54.5,40.5,30.45,WNW,298,4.0,17.0,59,0.00,,,0.15,meteohub,2013-04-11 01:22:00,
2013-04-10 18:27:00,54.3,39.9,30.45,WSW,242,10.0,14.0,58,0.00,,,0.15,meteohub,2013-04-11 01:27:00,
2013-04-10 18:32:00,54.3,40.3,30.46,West,268,4.0,16.0,59,0.00,,,0.15,meteohub,2013-04-11 01:32:00,
2013-04-10 18:38:00,54.1,40.6,30.46,SW,234,10.0,16.0,60,0.00,,,0.15,meteohub,2013-04-11 01:38:00,
2013-04-10 18:43:00,53.8,40.6,30.46,West,267,10.0,16.0,61,0.00,,,0.15,meteohub,2013-04-11 01:43:00,
2013-04-10 18:48:00,53.6,40.5,30.46,WSW,246,8.0,15.0,61,0.00,,,0.15,meteohub,2013-04-11 01:48:00,
2013-04-10 18:53:00,53.4,40.6,30.46,NW,304,4.0,17.0,62,0.00,,,0.15,meteohub,2013-04-11 01:53:00,
2013-04-10 18:59:00,53.2,41.0,30.47,WSW,257,3.0,17.0,63,0.00,,,0.15,meteohub,2013-04-11 01:59:00,
2013-04-10 19:05:00,53.1,40.8,30.47,WNW,294,9.0,13.0,63,0.00,,,0.15,meteohub,2013-04-11 02:05:00,
2013-04-10 19:10:00,53.1,40.5,30.47,WSW,257,4.0,17.0,62,0.00,,,0.15,meteohub,2013-04-11 02:10:00,
2013-04-10 19:15:00,52.9,40.6,30.48,WSW,256,10.0,18.0,63,0.00,,,0.15,meteohub,2013-04-11 02:15:00,
2013-04-10 19:21:00,52.7,40.5,30.48,SW,233,6.0,18.0,63,0.00,,,0.15,meteohub,2013-04-11 02:21:00,
2013-04-10 19:27:00,52.5,39.4,30.48,SW,229,7.0,14.0,61,0.00,,,0.15,meteohub,2013-04-11 02:27:00,
2013-04-10 19:32:00,52.5,39.4,30.49,SW,228,2.0,13.0,61,0.00,,,0.15,meteohub,2013-04-11 02:32:00,
2013-04-10 19:37:00,52.3,39.4,30.49,WSW,237,4.0,12.0,61,0.00,,,0.15,meteohub,2013-04-11 02:37:00,
2013-04-10 19:42:00,52.2,39.6,30.49,SW,214,5.0,11.0,62,0.00,,,0.15,meteohub,2013-04-11 02:42:00,
2013-04-10 19:47:00,52.2,39.2,30.49,SW,226,6.0,12.0,61,0.00,,,0.15,meteohub,2013-04-11 02:47:00,
2013-04-10 19:52:00,52.2,39.2,30.49,WSW,255,4.0,12.0,61,0.00,,,0.15,meteohub,2013-04-11 02:52:00,
2013-04-10 19:57:00,51.8,38.8,30.49,West,267,4.0,14.0,61,0.00,,,0.15,meteohub,2013-04-11 02:57:00,
2013-04-10 20:02:00,51.6,38.7,30.50,SW,225,9.0,14.0,61,0.00,,,0.15,meteohub,2013-04-11 03:02:00,
2013-04-10 20:07:00,51.4,38.5,30.50,SSW,198,7.0,11.0,61,0.00,,,0.15,meteohub,2013-04-11 03:07:00,
2013-04-10 20:13:00,51.4,37.9,30.50,WSW,240,6.0,14.0,60,0.00,,,0.15,meteohub,2013-04-11 03:13:00,
2013-04-10 20:18:00,51.4,37.9,30.49,West,259,5.0,15.0,60,0.00,,,0.15,meteohub,2013-04-11 03:18:00,
2013-04-10 20:23:00,51.3,37.8,30.50,West,264,7.0,15.0,60,0.00,,,0.15,meteohub,2013-04-11 03:23:00,
2013-04-10 20:28:00,51.3,37.8,30.50,SW,236,10.0,15.0,60,0.00,,,0.15,meteohub,2013-04-11 03:28:00,
2013-04-10 20:33:00,51.3,37.8,30.50,SW,222,7.0,14.0,60,0.00,,,0.15,meteohub,2013-04-11 03:33:00,
2013-04-10 20:38:00,51.1,37.8,30.50,WSW,251,5.0,14.0,60,0.00,,,0.15,meteohub,2013-04-11 03:38:00,
2013-04-10 20:44:00,51.1,38.1,30.50,SW,221,10.0,15.0,61,0.00,,,0.15,meteohub,2013-04-11 03:44:00,
2013-04-10 20:49:00,50.7,37.4,30.51,WSW,250,2.0,15.0,60,0.00,,,0.15,meteohub,2013-04-11 03:49:00,
2013-04-10 20:55:00,50.5,37.2,30.51,West,267,1.0,15.0,60,0.00,,,0.15,meteohub,2013-04-11 03:55:00,
2013-04-10 21:02:00,50.2,37.6,30.51,WSW,240,3.0,13.0,62,0.00,,,0.15,meteohub,2013-04-11 04:02:00,
2013-04-10 21:03:00,50.2,37.6,30.51,WSW,256,0.0,13.0,62,0.00,,,0.15,meteohub,2013-04-11 04:03:00,
2013-04-10 21:04:00,50.2,37.6,30.51,SW,233,6.0,13.0,62,0.00,,,0.15,meteohub,2013-04-11 04:04:00,
2013-04-10 21:05:00,50.2,37.6,30.51,SSW,203,3.0,13.0,62,0.00,,,0.15,meteohub,2013-04-11 04:05:00,
2013-04-10 21:11:00,49.6,37.9,30.51,WSW,256,3.0,9.0,64,0.00,,,0.15,meteohub,2013-04-11 04:11:00,
2013-04-10 21:16:00,49.6,38.3,30.52,SSE,148,3.0,9.0,65,0.00,,,0.15,meteohub,2013-04-11 04:16:00,
2013-04-10 21:21:00,49.3,38.5,30.52,SW,229,3.0,8.0,66,0.00,,,0.15,meteohub,2013-04-11 04:21:00,
2013-04-10 21:26:00,49.3,38.5,30.53,SW,230,3.0,11.0,66,0.00,,,0.15,meteohub,2013-04-11 04:26:00,
2013-04-10 21:32:00,49.3,38.5,30.53,West,259,4.0,11.0,66,0.00,,,0.15,meteohub,2013-04-11 04:32:00,
2013-04-10 21:37:00,49.3,37.9,30.53,SW,229,4.0,14.0,65,0.00,,,0.15,meteohub,2013-04-11 04:37:00,
2013-04-10 21:42:00,49.1,37.8,30.53,WNW,286,4.0,14.0,65,0.00,,,0.15,meteohub,2013-04-11 04:42:00,
2013-04-10 21:47:00,48.9,37.8,30.53,WSW,250,10.0,14.0,65,0.00,,,0.15,meteohub,2013-04-11 04:47:00,
2013-04-10 21:52:00,49.1,37.8,30.53,WSW,253,6.0,14.0,65,0.00,,,0.15,meteohub,2013-04-11 04:52:00,
2013-04-10 21:58:00,48.9,38.1,30.53,SW,229,3.0,14.0,66,0.00,,,0.15,meteohub,2013-04-11 04:58:00,
2013-04-10 22:03:00,48.7,37.9,30.53,SW,230,7.0,14.0,66,0.00,,,0.15,meteohub,2013-04-11 05:03:00,
2013-04-10 22:08:00,48.7,37.9,30.54,South,176,6.0,13.0,66,0.00,,,0.15,meteohub,2013-04-11 05:08:00,
2013-04-10 22:13:00,48.6,37.8,30.54,WSW,244,9.0,13.0,66,0.00,,,0.15,meteohub,2013-04-11 05:13:00,
2013-04-10 22:18:00,48.6,37.8,30.54,West,272,9.0,11.0,66,0.00,,,0.15,meteohub,2013-04-11 05:18:00,
2013-04-10 22:23:00,48.4,37.6,30.54,SW,217,5.0,20.0,66,0.00,,,0.15,meteohub,2013-04-11 05:23:00,
2013-04-10 22:28:00,48.4,37.6,30.54,West,276,3.0,20.0,66,0.00,,,0.15,meteohub,2013-04-11 05:28:00,
2013-04-10 22:33:00,48.2,37.4,30.54,SW,234,10.0,13.0,66,0.00,,,0.15,meteohub,2013-04-11 05:33:00,
2013-04-10 22:39:00,48.2,37.4,30.54,West,265,3.0,15.0,66,0.00,,,0.15,meteohub,2013-04-11 05:39:00,
2013-04-10 22:44:00,48.0,37.6,30.55,WSW,254,3.0,15.0,67,0.00,,,0.15,meteohub,2013-04-11 05:44:00,
2013-04-10 22:49:00,48.0,37.6,30.55,WNW,299,4.0,15.0,67,0.00,,,0.15,meteohub,2013-04-11 05:49:00,
2013-04-10 22:54:00,47.8,37.8,30.55,SW,229,11.0,16.0,68,0.00,,,0.15,meteohub,2013-04-11 05:54:00,
2013-04-10 22:59:00,47.8,38.1,30.55,SW,222,8.0,16.0,69,0.00,,,0.15,meteohub,2013-04-11 05:59:00,
2013-04-10 23:04:00,47.7,38.3,30.55,West,269,4.0,17.0,70,0.00,,,0.15,meteohub,2013-04-11 06:04:00,
2013-04-10 23:11:00,47.5,38.1,30.56,WSW,242,12.0,17.0,70,0.00,,,0.15,meteohub,2013-04-11 06:11:00,
2013-04-10 23:16:00,47.5,38.5,30.56,SW,234,7.0,15.0,71,0.00,,,0.15,meteohub,2013-04-11 06:16:00,
2013-04-10 23:21:00,47.3,38.3,30.56,WSW,245,11.0,15.0,71,0.00,,,0.15,meteohub,2013-04-11 06:21:00,
2013-04-10 23:26:00,47.1,38.5,30.56,SW,230,10.0,14.0,72,0.00,,,0.15,meteohub,2013-04-11 06:26:00,
2013-04-10 23:31:00,46.9,38.7,30.55,WSW,241,8.0,14.0,73,0.00,,,0.15,meteohub,2013-04-11 06:31:00,
2013-04-10 23:36:00,46.8,38.8,30.55,NW,313,11.0,14.0,74,0.00,,,0.15,meteohub,2013-04-11 06:36:00,
2013-04-10 23:42:00,46.8,38.8,30.55,West,279,9.0,15.0,74,0.00,,,0.15,meteohub,2013-04-11 06:42:00,
2013-04-10 23:47:00,46.8,38.5,30.55,WSW,255,4.0,20.0,73,0.00,,,0.15,meteohub,2013-04-11 06:47:00,
2013-04-10 23:52:00,46.8,38.5,30.55,West,261,8.0,20.0,73,0.00,,,0.15,meteohub,2013-04-11 06:52:00,
2013-04-10 23:57:00,46.8,38.5,30.54,WSW,256,7.0,20.0,73,0.00,,,0.15,meteohub,2013-04-11 06:57:00,